首页
METAR-TAF:

METAR-TAF

机场 :

威奇托, 堪薩斯州, 美国

纬度: 37-38-50N, 经度: 097-25-46W, 海拔: 406米

当前天气观测

该预报发布于1小时和6分钟前的16:53 UTC
风速16节,风向
温度 32°C
湿度 49%
气压 1012 hPa
能見度: 16.1公里
少量云层高于18000英尺
散云层高于20000英尺
散云层高于25000英尺

METAR: KICT 151653Z 18016KT 10SM FEW180 SCT200 SCT250 32/20 A2989 RMK AO2 SLP102 T03170200

时间: 12:59 (17:59 UTC)

预报

该预报发布于30分钟前的17:29 UTC
预报有效从15日的 18点(UTC)到 16日的 18点(UTC)
风速18节,风向,有时为27节阵风
能見度: 10公里
散云层高于20000英尺
从 15日的 2200点(UTC)
风速18节,风向,有时为27节阵风
能見度: 10公里
散云层高于11000英尺, 积雨云.
附近有雷暴
从 16日的 0100点(UTC)
风速15节,风向,有时为23节阵风
能見度: 10公里
散云层高于25000英尺

TAF: KICT 151729Z 1518/1618 19018G27KT P6SM SCT200 FM152200 17018G27KT P6SM VCTS SCT110CB FM160100 18015G23KT P6SM SCT250

超过4000个机场的气象观测和天气预报(METAR&TAF报告)。

可查询的气象台以黄色和红色小点在地图上表示。

将鼠标移到小点上方,可查看气象台名称。

然后点击查看天气观测和预报。

如需切换地图:点击带黑十字的绿色按钮放大地图;点击带横线的绿色按钮缩小地图;或者点击绿色箭头查看邻近地区的地图。


METAR-TAF: